createdAt,value
2018-12-26T00:01:03.958Z,32.93
2018-12-26T00:03:32.217Z,30.30
2018-12-26T00:06:00.446Z,29.42
2018-12-26T00:08:28.691Z,29.35
2018-12-26T00:10:56.927Z,32.23
2018-12-26T00:13:26.114Z,32.15
2018-12-26T00:15:54.382Z,31.55
2018-12-26T00:18:22.659Z,32.70
2018-12-26T00:20:50.987Z,28.50
2018-12-26T00:23:19.174Z,27.80
2018-12-26T00:25:47.391Z,31.55
2018-12-26T00:28:15.620Z,31.33
2018-12-26T00:30:43.864Z,32.25
2018-12-26T00:33:12.116Z,35.40
2018-12-26T00:35:40.311Z,31.33
2018-12-26T00:38:08.602Z,34.23
2018-12-26T00:40:36.955Z,32.25
2018-12-26T00:43:05.187Z,32.53
2018-12-26T00:45:33.457Z,32.05
2018-12-26T00:48:01.671Z,28.35
2018-12-26T00:50:29.902Z,30.30
2018-12-26T00:52:58.114Z,33.33
2018-12-26T00:55:26.339Z,29.60
2018-12-26T00:57:54.585Z,28.60
2018-12-26T01:00:22.799Z,29.05
2018-12-26T01:02:51.034Z,33.08
2018-12-26T01:05:19.268Z,30.77
2018-12-26T01:07:47.475Z,32.00
2018-12-26T01:10:15.761Z,32.42
2018-12-26T01:12:43.967Z,34.08
2018-12-26T01:15:12.193Z,28.92
2018-12-26T01:17:40.427Z,31.52
2018-12-26T01:20:08.647Z,29.27
2018-12-26T01:22:36.859Z,31.33
2018-12-26T01:25:05.359Z,30.12
2018-12-26T01:27:34.551Z,28.75
2018-12-26T01:30:02.775Z,29.60
2018-12-26T01:32:30.989Z,31.95
2018-12-26T01:34:59.219Z,31.02
2018-12-26T01:37:27.519Z,29.65
2018-12-26T01:39:55.746Z,29.65
2018-12-26T01:42:23.942Z,26.80
2018-12-26T01:44:54.186Z,30.35
2018-12-26T01:47:22.115Z,27.93
2018-12-26T01:49:50.332Z,29.52
2018-12-26T01:52:18.641Z,30.70
2018-12-26T01:54:46.855Z,33.00
2018-12-26T01:57:15.069Z,30.43
2018-12-26T01:59:43.280Z,30.70
2018-12-26T02:02:11.551Z,29.90
2018-12-26T02:04:39.810Z,28.77
2018-12-26T02:07:08.014Z,29.00
2018-12-26T02:09:37.299Z,33.75
2018-12-26T02:12:06.606Z,33.65
2018-12-26T02:14:34.829Z,29.40
2018-12-26T02:17:03.147Z,32.25
2018-12-26T02:19:31.427Z,34.58
2018-12-26T02:21:59.663Z,30.82
2018-12-26T02:24:27.903Z,28.53
2018-12-26T02:26:56.117Z,30.95
2018-12-26T02:29:24.318Z,29.98
2018-12-26T02:31:52.555Z,30.00
2018-12-26T02:34:20.771Z,34.08
2018-12-26T02:36:49.041Z,34.55
2018-12-26T02:39:17.254Z,31.65
2018-12-26T02:41:45.475Z,30.55
2018-12-26T02:44:13.698Z,31.93
2018-12-26T02:46:41.915Z,34.48
2018-12-26T02:49:10.123Z,28.90
2018-12-26T02:51:38.343Z,30.50
2018-12-26T02:54:06.610Z,31.02
2018-12-26T02:56:34.827Z,28.02
2018-12-26T02:59:03.223Z,32.78
2018-12-26T03:01:31.404Z,28.00
2018-12-26T03:03:59.703Z,29.87
2018-12-26T03:06:27.967Z,29.30
2018-12-26T03:08:56.195Z,30.90
2018-12-26T03:11:24.424Z,30.82
2018-12-26T03:13:52.781Z,31.75
2018-12-26T03:16:20.994Z,31.85
2018-12-26T03:18:49.200Z,31.55
2018-12-26T03:21:17.546Z,29.35
2018-12-26T03:23:45.790Z,27.95
2018-12-26T03:26:14.041Z,27.37
2018-12-26T03:28:42.264Z,30.43
2018-12-26T03:31:10.485Z,27.45
2018-12-26T03:33:38.743Z,29.53
2018-12-26T03:36:06.961Z,26.80
2018-12-26T03:38:35.182Z,27.10
2018-12-26T03:41:03.406Z,27.80
2018-12-26T03:43:31.712Z,26.30
2018-12-26T03:45:59.915Z,27.50
2018-12-26T03:48:28.595Z,28.65
2018-12-26T03:50:56.811Z,28.02
2018-12-26T03:53:25.290Z,26.07
2018-12-26T03:55:53.499Z,27.80
2018-12-26T03:58:21.731Z,27.73
2018-12-26T04:00:49.951Z,29.98
2018-12-26T04:03:18.159Z,30.70
2018-12-26T04:05:46.383Z,30.65
2018-12-26T04:08:14.682Z,32.10
2018-12-26T04:10:42.959Z,28.62
2018-12-26T04:13:11.191Z,28.17
2018-12-26T04:15:39.497Z,30.65
2018-12-26T04:18:07.992Z,31.25
2018-12-26T04:20:36.199Z,28.02
2018-12-26T04:23:04.511Z,33.57
2018-12-26T04:25:32.715Z,33.50
2018-12-26T04:28:00.943Z,31.33
2018-12-26T04:30:29.167Z,32.15
2018-12-26T04:32:57.396Z,35.23
2018-12-26T04:35:25.599Z,32.67
2018-12-26T04:37:53.831Z,35.80
2018-12-26T04:40:22.068Z,32.67
2018-12-26T04:42:50.312Z,33.40
2018-12-26T04:45:18.539Z,34.13
2018-12-26T04:47:46.759Z,37.93
2018-12-26T04:50:14.971Z,41.35
2018-12-26T04:52:43.183Z,34.93
2018-12-26T04:55:12.458Z,39.70
2018-12-26T04:57:41.371Z,35.63
2018-12-26T05:00:09.577Z,39.57
2018-12-26T05:02:37.785Z,40.65
2018-12-26T05:05:06.091Z,36.77
2018-12-26T05:07:34.300Z,38.35
2018-12-26T05:10:02.519Z,41.20
2018-12-26T05:12:30.719Z,45.27
2018-12-26T05:14:58.955Z,43.02
2018-12-26T05:17:27.159Z,41.13
2018-12-26T05:19:55.439Z,38.93
2018-12-26T05:22:23.638Z,43.00
2018-12-26T05:24:51.858Z,42.90
2018-12-26T05:27:20.063Z,46.00
2018-12-26T05:29:48.293Z,47.07
2018-12-26T05:32:16.498Z,48.87
2018-12-26T05:34:44.743Z,51.70
2018-12-26T05:37:12.965Z,42.50
2018-12-26T05:39:41.184Z,48.93
2018-12-26T05:42:09.398Z,55.00
2018-12-26T05:44:37.630Z,56.95
2018-12-26T05:47:05.860Z,56.23
2018-12-26T05:49:34.070Z,62.60
2018-12-26T05:52:02.281Z,62.47
2018-12-26T05:54:30.588Z,68.62
2018-12-26T05:56:58.815Z,61.63
2018-12-26T05:59:27.023Z,70.90
2018-12-26T06:01:55.222Z,71.43
2018-12-26T06:04:23.443Z,62.93
2018-12-26T06:06:51.659Z,71.17
2018-12-26T06:09:19.870Z,71.87
2018-12-26T06:11:48.090Z,71.83
2018-12-26T06:14:16.328Z,68.17
2018-12-26T06:16:44.543Z,69.37
2018-12-26T06:19:12.747Z,76.77
2018-12-26T06:21:40.968Z,67.90
2018-12-26T06:24:09.197Z,79.22
2018-12-26T06:26:37.406Z,70.60
2018-12-26T06:29:05.627Z,70.10
2018-12-26T06:31:33.835Z,71.53
2018-12-26T06:34:02.059Z,65.45
2018-12-26T06:36:30.279Z,59.77
2018-12-26T06:38:58.483Z,61.40
2018-12-26T06:41:26.703Z,64.80
2018-12-26T06:43:55.037Z,62.50
2018-12-26T06:46:23.243Z,67.40
2018-12-26T06:48:51.451Z,59.67
2018-12-26T06:51:19.904Z,55.80
2018-12-26T06:53:48.139Z,64.45
2018-12-26T06:56:16.361Z,71.15
2018-12-26T06:58:44.587Z,67.70
2018-12-26T07:01:12.791Z,66.42
2018-12-26T07:03:41.002Z,71.80
2018-12-26T07:06:09.220Z,66.97
2018-12-26T07:08:37.430Z,65.70
2018-12-26T07:11:05.646Z,71.77
2018-12-26T07:13:33.866Z,71.63
2018-12-26T07:16:02.080Z,75.05
2018-12-26T07:18:30.274Z,76.87
2018-12-26T07:20:58.498Z,73.45
2018-12-26T07:23:26.713Z,79.60
2018-12-26T07:25:54.934Z,85.33
2018-12-26T07:28:23.146Z,80.47
2018-12-26T07:30:51.359Z,74.87
2018-12-26T07:33:19.576Z,80.35
2018-12-26T07:35:47.794Z,79.97
2018-12-26T07:38:15.996Z,76.23
2018-12-26T07:40:44.206Z,75.30
2018-12-26T07:43:12.411Z,78.15
2018-12-26T07:45:40.635Z,78.80
2018-12-26T07:48:09.122Z,75.07
2018-12-26T07:50:37.326Z,72.47
2018-12-26T07:53:05.531Z,68.52
2018-12-26T07:55:33.740Z,71.40
2018-12-26T07:58:02.044Z,69.20
2018-12-26T08:00:30.239Z,77.30
2018-12-26T08:02:58.440Z,67.37
2018-12-26T08:05:26.667Z,68.07
2018-12-26T08:07:54.875Z,70.80
2018-12-26T08:10:23.099Z,72.30
2018-12-26T08:12:51.307Z,75.25
2018-12-26T08:15:19.531Z,71.12
2018-12-26T08:17:47.739Z,70.55
2018-12-26T08:20:15.954Z,73.30
2018-12-26T08:22:44.164Z,80.47
2018-12-26T08:25:12.383Z,79.42
2018-12-26T08:27:40.599Z,72.77
2018-12-26T08:30:08.822Z,75.43
2018-12-26T08:32:37.031Z,82.25
2018-12-26T08:35:05.327Z,82.45
2018-12-26T08:37:33.552Z,76.70
2018-12-26T08:40:01.754Z,87.33
2018-12-26T08:42:29.983Z,84.17
2018-12-26T08:44:58.313Z,84.95
2018-12-26T08:47:26.518Z,81.32
2018-12-26T08:49:54.730Z,86.23
2018-12-26T08:52:22.958Z,90.45
2018-12-26T08:54:51.168Z,86.70
2018-12-26T08:57:19.399Z,94.35
2018-12-26T08:59:47.621Z,90.50
2018-12-26T09:02:15.832Z,103.07
2018-12-26T09:04:44.039Z,85.32
2018-12-26T09:07:12.263Z,84.70
2018-12-26T09:09:40.577Z,85.67
2018-12-26T09:12:08.787Z,79.72
2018-12-26T09:14:36.994Z,92.02
2018-12-26T09:17:05.220Z,81.60
2018-12-26T09:19:33.431Z,83.57
2018-12-26T09:22:01.638Z,81.67
2018-12-26T09:24:29.843Z,81.40
2018-12-26T09:26:58.083Z,87.02
2018-12-26T09:29:26.308Z,83.83
2018-12-26T09:31:54.506Z,85.03
2018-12-26T09:34:22.719Z,91.32
2018-12-26T09:36:50.935Z,97.42
2018-12-26T09:39:19.143Z,92.50
2018-12-26T09:41:47.351Z,96.10
2018-12-26T09:44:15.564Z,99.30
2018-12-26T09:46:43.811Z,100.07
2018-12-26T09:49:12.032Z,102.67
2018-12-26T09:51:40.255Z,102.90
2018-12-26T09:54:08.479Z,105.35
2018-12-26T09:56:36.728Z,114.50
2018-12-26T09:59:04.944Z,117.13
2018-12-26T10:01:33.183Z,120.23
2018-12-26T10:04:01.398Z,117.15
2018-12-26T10:06:29.615Z,118.47
2018-12-26T10:08:57.831Z,122.15
2018-12-26T10:11:26.036Z,132.40
2018-12-26T10:13:54.262Z,132.27
2018-12-26T10:16:22.478Z,136.10
2018-12-26T10:18:50.787Z,136.60
2018-12-26T10:21:19.006Z,137.73
2018-12-26T10:23:47.255Z,104.53
2018-12-26T10:26:15.475Z,122.97
2018-12-26T10:28:43.715Z,125.67
2018-12-26T10:31:11.957Z,125.73
2018-12-26T10:33:40.173Z,135.33
2018-12-26T10:36:08.406Z,134.78
2018-12-26T10:38:36.635Z,142.20
2018-12-26T10:41:04.856Z,137.03
2018-12-26T10:43:33.338Z,136.40
2018-12-26T10:46:01.560Z,141.83
2018-12-26T10:48:29.807Z,140.05
2018-12-26T10:50:58.102Z,147.70
2018-12-26T10:53:26.348Z,142.80
2018-12-26T10:55:54.579Z,142.30
2018-12-26T10:58:22.851Z,137.85
2018-12-26T11:00:51.113Z,149.93
2018-12-26T11:03:19.345Z,140.68
2018-12-26T11:05:47.578Z,154.80
2018-12-26T11:08:15.811Z,154.18
2018-12-26T11:10:44.030Z,154.70
2018-12-26T11:13:12.259Z,152.35
2018-12-26T11:15:41.167Z,152.82
2018-12-26T11:18:09.436Z,151.30
2018-12-26T11:20:37.663Z,154.72
2018-12-26T11:23:05.907Z,142.70
2018-12-26T11:25:34.128Z,150.15
2018-12-26T11:28:02.351Z,150.90
2018-12-26T11:30:30.623Z,172.05
2018-12-26T11:33:01.369Z,164.95
2018-12-26T11:35:30.831Z,192.37
2018-12-26T11:37:59.043Z,169.15
2018-12-26T11:40:27.285Z,173.43
2018-12-26T11:42:55.598Z,171.47
2018-12-26T11:45:23.847Z,159.18
2018-12-26T11:47:52.059Z,169.13
2018-12-26T11:50:20.306Z,162.57
2018-12-26T11:52:48.516Z,147.20
2018-12-26T11:55:16.911Z,154.47
2018-12-26T11:57:45.131Z,159.90
2018-12-26T12:00:13.490Z,172.93
2018-12-26T12:02:41.800Z,170.50
2018-12-26T12:05:10.048Z,163.95
2018-12-26T12:07:38.267Z,178.13
2018-12-26T12:10:06.613Z,161.37
2018-12-26T12:12:34.921Z,166.07
2018-12-26T12:15:03.382Z,173.97
2018-12-26T12:17:31.607Z,175.95
2018-12-26T12:19:59.855Z,175.75
2018-12-26T12:22:28.155Z,170.53
2018-12-26T12:24:56.386Z,166.70
2018-12-26T12:27:24.607Z,158.12
2018-12-26T12:29:52.847Z,172.35
2018-12-26T12:32:21.143Z,160.28
2018-12-26T12:34:50.835Z,180.90
2018-12-26T12:37:19.070Z,172.17
2018-12-26T12:39:47.310Z,178.17
2018-12-26T12:42:15.697Z,160.27
2018-12-26T12:44:43.942Z,147.47
2018-12-26T12:47:12.179Z,150.65
2018-12-26T12:49:40.431Z,161.73
2018-12-26T12:52:08.676Z,159.23
2018-12-26T12:54:37.462Z,157.93
2018-12-26T12:57:05.694Z,164.52
2018-12-26T12:59:33.922Z,155.63
2018-12-26T13:02:02.156Z,148.20
2018-12-26T13:04:30.451Z,159.20
2018-12-26T13:06:58.700Z,173.02
2018-12-26T13:09:26.919Z,169.47
2018-12-26T13:11:55.140Z,169.85
2018-12-26T13:14:23.442Z,166.67
2018-12-26T13:16:51.705Z,166.10
2018-12-26T13:19:19.962Z,165.77
2018-12-26T13:21:48.203Z,165.82
2018-12-26T13:24:16.426Z,165.13
2018-12-26T13:26:45.668Z,154.55
2018-12-26T13:29:13.908Z,162.75
2018-12-26T13:31:42.152Z,164.83
2018-12-26T13:34:10.411Z,163.37
2018-12-26T13:36:38.635Z,153.23
2018-12-26T13:39:06.954Z,171.60
2018-12-26T13:41:35.199Z,168.63
2018-12-26T13:44:03.461Z,170.30
2018-12-26T13:46:33.889Z,167.60
2018-12-26T13:49:01.667Z,174.12
2018-12-26T13:51:30.864Z,160.10
2018-12-26T13:53:59.124Z,157.62
2018-12-26T13:56:29.418Z,155.70
2018-12-26T13:58:58.623Z,150.00
2018-12-26T14:01:26.847Z,156.67
2018-12-26T14:03:55.139Z,153.20
2018-12-26T14:06:23.379Z,156.30
2018-12-26T14:08:51.648Z,148.37
2018-12-26T14:11:19.940Z,145.15
2018-12-26T14:13:48.165Z,149.67
2018-12-26T14:16:16.395Z,143.37
2018-12-26T14:18:44.635Z,146.50
2018-12-26T14:21:12.863Z,152.38
2018-12-26T14:23:41.096Z,154.78
2018-12-26T14:26:09.358Z,152.12
2018-12-26T14:28:37.597Z,160.60
2018-12-26T14:31:05.818Z,151.90
2018-12-26T14:33:35.066Z,153.60
2018-12-26T14:36:03.510Z,149.40
2018-12-26T14:38:31.916Z,147.05
2018-12-26T14:41:00.151Z,151.03
2018-12-26T14:43:28.397Z,148.30
2018-12-26T14:45:56.650Z,143.00
2018-12-26T14:48:24.956Z,153.10
2018-12-26T14:50:53.191Z,149.75
2018-12-26T14:53:21.426Z,146.95
2018-12-26T14:55:49.635Z,144.57
2018-12-26T14:58:17.894Z,158.42
2018-12-26T15:00:46.124Z,156.70
2018-12-26T15:03:14.352Z,150.40
2018-12-26T15:05:42.587Z,141.00
2018-12-26T15:08:10.883Z,142.93
2018-12-26T15:10:39.089Z,156.43
2018-12-26T15:13:08.052Z,144.75
2018-12-26T15:15:36.273Z,149.20
2018-12-26T15:18:04.500Z,144.00
2018-12-26T15:20:32.742Z,148.60
2018-12-26T15:23:01.006Z,152.40
2018-12-26T15:25:29.211Z,138.40
2018-12-26T15:27:57.515Z,131.65
2018-12-26T15:30:28.648Z,132.97
2018-12-26T15:32:55.651Z,128.20
2018-12-26T15:35:23.894Z,132.72
2018-12-26T15:37:52.107Z,142.03
2018-12-26T15:40:20.386Z,128.80
2018-12-26T15:42:49.672Z,139.33
2018-12-26T15:45:18.076Z,133.32
2018-12-26T15:47:46.347Z,139.00
2018-12-26T15:50:14.635Z,134.52
2018-12-26T15:52:43.816Z,133.75
2018-12-26T15:55:12.035Z,139.28
2018-12-26T15:57:40.243Z,134.70
2018-12-26T16:00:08.939Z,129.53
2018-12-26T16:02:37.143Z,139.70
2018-12-26T16:05:05.738Z,135.03
2018-12-26T16:07:34.906Z,130.53
2018-12-26T16:10:05.327Z,137.75
2018-12-26T16:12:33.242Z,133.80
2018-12-26T16:15:01.463Z,127.22
2018-12-26T16:17:29.673Z,134.40
2018-12-26T16:19:57.895Z,69.45
2018-12-26T16:22:26.099Z,72.73
2018-12-26T16:24:54.383Z,83.87
2018-12-26T16:27:22.604Z,92.25
2018-12-26T16:29:50.843Z,90.40
2018-12-26T16:32:19.491Z,94.80
2018-12-26T16:34:47.727Z,89.90
2018-12-26T16:37:15.949Z,95.30
2018-12-26T16:39:44.258Z,95.45
2018-12-26T16:42:12.486Z,102.35
2018-12-26T16:44:40.720Z,107.17
2018-12-26T16:47:09.034Z,114.70
2018-12-26T16:49:37.234Z,116.35
2018-12-26T16:52:05.518Z,126.13
2018-12-26T16:54:33.771Z,130.20
2018-12-26T16:57:02.004Z,137.00
2018-12-26T16:59:30.221Z,137.40
2018-12-26T17:01:58.447Z,143.87
2018-12-26T17:04:26.756Z,132.55
2018-12-26T17:06:54.976Z,137.53
2018-12-26T17:09:23.195Z,134.93
2018-12-26T17:11:51.410Z,124.97
2018-12-26T17:14:19.659Z,131.45
2018-12-26T17:16:47.891Z,126.00
2018-12-26T17:19:16.111Z,117.30
2018-12-26T17:21:44.359Z,128.50
2018-12-26T17:24:16.621Z,121.95
2018-12-26T17:26:42.530Z,134.60
2018-12-26T17:29:10.731Z,137.92
2018-12-26T17:31:38.962Z,139.00
2018-12-26T17:34:07.183Z,145.90
2018-12-26T17:36:35.414Z,127.50
2018-12-26T17:39:05.739Z,132.20
2018-12-26T17:41:34.012Z,120.77
2018-12-26T17:44:02.240Z,129.47
2018-12-26T17:46:30.484Z,114.50
2018-12-26T17:48:58.707Z,106.97
2018-12-26T17:51:26.933Z,134.07
2018-12-26T17:54:14.437Z,120.20
2018-12-26T17:56:45.517Z,130.00
2018-12-26T17:59:33.018Z,126.03
2018-12-26T18:02:04.775Z,119.77
2018-12-26T18:04:32.991Z,123.95
2018-12-26T18:07:01.235Z,121.27
2018-12-26T18:09:29.443Z,121.67
2018-12-26T18:12:11.188Z,117.08
2018-12-26T18:14:27.671Z,122.17
2018-12-26T18:16:55.913Z,120.37
2018-12-26T18:19:24.124Z,117.60
2018-12-26T18:21:52.378Z,123.70
2018-12-26T18:24:20.621Z,118.20
2018-12-26T18:26:48.903Z,126.07
2018-12-26T18:29:17.115Z,128.83
2018-12-26T18:31:45.364Z,125.27
2018-12-26T18:34:13.587Z,127.38
2018-12-26T18:36:43.139Z,118.03
2018-12-26T18:39:11.487Z,113.25
2018-12-26T18:41:39.702Z,124.70
2018-12-26T18:44:07.947Z,117.10
2018-12-26T18:46:36.183Z,112.37
2018-12-26T18:49:04.404Z,111.90
2018-12-26T18:51:32.630Z,105.10
2018-12-26T18:54:00.852Z,116.63
2018-12-26T18:56:29.074Z,108.75
2018-12-26T18:58:57.291Z,118.17
2018-12-26T19:01:30.600Z,118.27
2018-12-26T19:03:55.444Z,119.13
2018-12-26T19:06:23.683Z,125.90
2018-12-26T19:08:51.895Z,126.60
2018-12-26T19:11:20.126Z,133.13
2018-12-26T19:13:48.364Z,134.93
2018-12-26T19:16:16.669Z,135.35
2018-12-26T19:18:44.932Z,135.43
2018-12-26T19:21:13.166Z,150.70
2018-12-26T19:23:41.385Z,150.03
2018-12-26T19:26:09.608Z,149.55
2018-12-26T19:28:37.834Z,138.97
2018-12-26T19:31:06.057Z,144.87
2018-12-26T19:33:34.281Z,142.80
2018-12-26T19:36:02.516Z,155.55
2018-12-26T19:38:30.749Z,151.17
2018-12-26T19:40:58.985Z,150.75
2018-12-26T19:43:27.208Z,144.50
2018-12-26T19:45:55.426Z,152.27
2018-12-26T19:48:23.647Z,143.60
2018-12-26T19:50:52.785Z,151.23
2018-12-26T19:53:21.069Z,143.57
2018-12-26T19:55:49.282Z,143.17
2018-12-26T19:58:18.311Z,147.00
2018-12-26T20:00:46.613Z,152.87
2018-12-26T20:03:14.839Z,156.83
2018-12-26T20:05:43.063Z,156.55
2018-12-26T20:08:11.279Z,166.07
2018-12-26T20:10:39.498Z,151.25
2018-12-26T20:13:07.732Z,156.60
2018-12-26T20:15:35.951Z,156.82
2018-12-26T20:18:04.175Z,147.57
2018-12-26T20:20:32.392Z,149.30
2018-12-26T20:23:00.636Z,154.20
2018-12-26T20:25:28.867Z,180.80
2018-12-26T20:27:57.106Z,157.30
2018-12-26T20:30:25.332Z,142.37
2018-12-26T20:32:53.554Z,135.50
2018-12-26T20:35:21.816Z,132.90
2018-12-26T20:37:50.055Z,127.20
2018-12-26T20:40:18.275Z,118.60
2018-12-26T20:42:46.504Z,125.62
2018-12-26T20:45:14.766Z,119.37
2018-12-26T20:47:42.991Z,135.77
2018-12-26T20:50:11.209Z,130.83
2018-12-26T20:52:39.427Z,130.20
2018-12-26T20:55:07.671Z,139.92
2018-12-26T20:57:35.883Z,129.10
2018-12-26T21:00:04.766Z,144.07
2018-12-26T21:02:32.983Z,149.87
2018-12-26T21:05:01.236Z,150.80
2018-12-26T21:07:29.451Z,149.00
2018-12-26T21:09:57.682Z,141.95
2018-12-26T21:12:25.904Z,150.57
2018-12-26T21:14:54.156Z,144.67
2018-12-26T21:17:22.399Z,148.55
2018-12-26T21:19:50.647Z,137.50
2018-12-26T21:22:18.879Z,140.90
2018-12-26T21:24:47.104Z,143.83
2018-12-26T21:27:15.328Z,133.83
2018-12-26T21:29:43.647Z,133.52
2018-12-26T21:32:14.162Z,144.80
2018-12-26T21:34:41.884Z,141.07
2018-12-26T21:37:10.123Z,153.00
2018-12-26T21:39:38.355Z,147.70
2018-12-26T21:42:06.575Z,150.03
2018-12-26T21:44:34.811Z,146.98
2018-12-26T21:47:03.043Z,156.00
2018-12-26T21:49:31.281Z,151.17
2018-12-26T21:52:00.492Z,145.70
2018-12-26T21:54:28.749Z,146.95
2018-12-26T21:56:56.958Z,156.02
2018-12-26T21:59:25.167Z,156.87
2018-12-26T22:01:54.368Z,170.33
2018-12-26T22:04:22.650Z,163.80
2018-12-26T22:06:50.887Z,165.53
2018-12-26T22:09:19.098Z,179.15
2018-12-26T22:11:47.318Z,170.17
2018-12-26T22:14:16.623Z,179.75
2018-12-26T22:16:44.849Z,165.87
2018-12-26T22:19:13.062Z,157.90
2018-12-26T22:21:41.291Z,175.07
2018-12-26T22:24:09.530Z,166.82
2018-12-26T22:26:43.199Z,164.97
2018-12-26T22:29:07.705Z,172.37
2018-12-26T22:31:35.950Z,169.10
2018-12-26T22:34:04.163Z,168.07
2018-12-26T22:36:32.391Z,175.43
2018-12-26T22:39:00.602Z,160.78
2018-12-26T22:41:28.839Z,159.57
2018-12-26T22:43:57.068Z,158.87
2018-12-26T22:46:25.321Z,169.10
2018-12-26T22:48:53.543Z,162.80
2018-12-26T22:51:22.355Z,160.43
2018-12-26T22:53:50.579Z,148.03
2018-12-26T22:56:18.835Z,155.85
2018-12-26T22:58:47.077Z,153.40
2018-12-26T23:01:15.308Z,146.98
2018-12-26T23:03:43.526Z,137.03
2018-12-26T23:06:11.751Z,139.43
2018-12-26T23:08:39.991Z,148.70
2018-12-26T23:11:08.203Z,131.78
2018-12-26T23:13:36.444Z,130.73
2018-12-26T23:16:04.666Z,112.92
2018-12-26T23:18:32.900Z,120.57
2018-12-26T23:21:01.140Z,119.15
2018-12-26T23:23:29.371Z,108.67
2018-12-26T23:25:57.602Z,114.60
2018-12-26T23:28:25.839Z,112.20
2018-12-26T23:30:54.038Z,113.25
2018-12-26T23:33:22.270Z,102.02
2018-12-26T23:35:50.528Z,96.93
2018-12-26T23:38:18.747Z,94.32
2018-12-26T23:40:46.955Z,99.83
2018-12-26T23:43:15.243Z,84.47
2018-12-26T23:45:43.459Z,82.47
2018-12-26T23:48:11.673Z,80.32
2018-12-26T23:50:39.878Z,80.45
2018-12-26T23:53:08.093Z,85.80
2018-12-26T23:55:36.493Z,73.80
2018-12-26T23:58:04.706Z,82.10
